sensor_id;sensor_type;location;lat;lon;timestamp;P1;durP1;ratioP1;P2;durP2;ratioP2
17524;SDS011;40431;52.198;9.902;2024-03-08T00:01:24;25.13;;;22.47;;
17524;SDS011;40431;52.198;9.902;2024-03-08T00:03:52;25.43;;;22.83;;
17524;SDS011;40431;52.198;9.902;2024-03-08T00:06:24;24.70;;;22.27;;
17524;SDS011;40431;52.198;9.902;2024-03-08T00:08:55;26.90;;;24.20;;
17524;SDS011;40431;52.198;9.902;2024-03-08T00:11:26;23.33;;;20.90;;
17524;SDS011;40431;52.198;9.902;2024-03-08T00:13:58;27.40;;;22.40;;
17524;SDS011;40431;52.198;9.902;2024-03-08T00:16:35;25.43;;;22.90;;
17524;SDS011;40431;52.198;9.902;2024-03-08T00:19:19;23.40;;;21.00;;
17524;SDS011;40431;52.198;9.902;2024-03-08T00:21:54;27.80;;;23.53;;
17524;SDS011;40431;52.198;9.902;2024-03-08T00:24:24;24.60;;;22.30;;
17524;SDS011;40431;52.198;9.902;2024-03-08T00:26:56;24.83;;;22.37;;
17524;SDS011;40431;52.198;9.902;2024-03-08T00:29:28;27.67;;;24.73;;
17524;SDS011;40431;52.198;9.902;2024-03-08T00:32:04;24.70;;;22.33;;
17524;SDS011;40431;52.198;9.902;2024-03-08T00:34:35;26.50;;;23.67;;
17524;SDS011;40431;52.198;9.902;2024-03-08T00:37:04;26.73;;;23.90;;
17524;SDS011;40431;52.198;9.902;2024-03-08T00:39:35;27.73;;;24.60;;
17524;SDS011;40431;52.198;9.902;2024-03-08T00:42:10;25.43;;;22.30;;
17524;SDS011;40431;52.198;9.902;2024-03-08T00:44:42;26.10;;;23.20;;
17524;SDS011;40431;52.198;9.902;2024-03-08T00:47:11;23.47;;;21.40;;
17524;SDS011;40431;52.198;9.902;2024-03-08T00:49:41;26.83;;;24.20;;
17524;SDS011;40431;52.198;9.902;2024-03-08T00:52:10;25.17;;;22.87;;
17524;SDS011;40431;52.198;9.902;2024-03-08T00:54:42;25.00;;;22.47;;
17524;SDS011;40431;52.198;9.902;2024-03-08T00:57:17;26.87;;;24.30;;
17524;SDS011;40431;52.198;9.902;2024-03-08T00:59:46;26.10;;;23.40;;
17524;SDS011;40431;52.198;9.902;2024-03-08T01:02:14;26.40;;;23.73;;
17524;SDS011;40431;52.198;9.902;2024-03-08T01:04:47;25.37;;;22.43;;
17524;SDS011;40431;52.198;9.902;2024-03-08T01:07:17;26.80;;;24.07;;
17524;SDS011;40431;52.198;9.902;2024-03-08T01:09:45;28.03;;;24.57;;
17524;SDS011;40431;52.198;9.902;2024-03-08T01:12:13;28.87;;;24.73;;
17524;SDS011;40431;52.198;9.902;2024-03-08T01:14:44;26.97;;;24.20;;
17524;SDS011;40431;52.198;9.902;2024-03-08T01:17:17;27.23;;;24.47;;
17524;SDS011;40431;52.198;9.902;2024-03-08T01:19:51;28.30;;;24.70;;
17524;SDS011;40431;52.198;9.902;2024-03-08T01:22:20;30.40;;;26.37;;
17524;SDS011;40431;52.198;9.902;2024-03-08T01:24:50;30.67;;;26.53;;
17524;SDS011;40431;52.198;9.902;2024-03-08T01:27:19;26.70;;;24.30;;
17524;SDS011;40431;52.198;9.902;2024-03-08T01:29:52;27.20;;;24.47;;
17524;SDS011;40431;52.198;9.902;2024-03-08T01:32:21;26.17;;;23.00;;
17524;SDS011;40431;52.198;9.902;2024-03-08T01:34:53;25.70;;;23.27;;
17524;SDS011;40431;52.198;9.902;2024-03-08T01:37:22;27.03;;;24.60;;
17524;SDS011;40431;52.198;9.902;2024-03-08T01:39:50;28.73;;;25.80;;
17524;SDS011;40431;52.198;9.902;2024-03-08T01:42:25;26.60;;;23.83;;
17524;SDS011;40431;52.198;9.902;2024-03-08T01:44:55;26.33;;;23.90;;
17524;SDS011;40431;52.198;9.902;2024-03-08T01:47:23;26.00;;;23.30;;
17524;SDS011;40431;52.198;9.902;2024-03-08T01:50:02;26.53;;;23.10;;
17524;SDS011;40431;52.198;9.902;2024-03-08T01:52:43;29.47;;;23.57;;
17524;SDS011;40431;52.198;9.902;2024-03-08T01:55:31;24.77;;;22.07;;
17524;SDS011;40431;52.198;9.902;2024-03-08T01:58:03;28.27;;;24.97;;
17524;SDS011;40431;52.198;9.902;2024-03-08T02:00:36;28.23;;;23.83;;
17524;SDS011;40431;52.198;9.902;2024-03-08T02:03:15;26.17;;;23.20;;
17524;SDS011;40431;52.198;9.902;2024-03-08T02:05:50;25.63;;;22.83;;
17524;SDS011;40431;52.198;9.902;2024-03-08T02:08:20;26.70;;;21.97;;
17524;SDS011;40431;52.198;9.902;2024-03-08T02:10:49;24.77;;;22.20;;
17524;SDS011;40431;52.198;9.902;2024-03-08T02:13:18;26.10;;;23.10;;
17524;SDS011;40431;52.198;9.902;2024-03-08T02:15:52;28.10;;;23.17;;
17524;SDS011;40431;52.198;9.902;2024-03-08T02:18:22;25.57;;;22.97;;
17524;SDS011;40431;52.198;9.902;2024-03-08T02:20:52;26.20;;;23.13;;
17524;SDS011;40431;52.198;9.902;2024-03-08T02:23:21;26.53;;;23.73;;
17524;SDS011;40431;52.198;9.902;2024-03-08T02:25:51;26.20;;;23.57;;
17524;SDS011;40431;52.198;9.902;2024-03-08T02:28:20;26.67;;;23.87;;
17524;SDS011;40431;52.198;9.902;2024-03-08T02:30:50;30.73;;;23.20;;
17524;SDS011;40431;52.198;9.902;2024-03-08T02:33:21;26.90;;;22.73;;
17524;SDS011;40431;52.198;9.902;2024-03-08T02:35:51;27.57;;;22.67;;
17524;SDS011;40431;52.198;9.902;2024-03-08T02:38:22;33.00;;;25.83;;
17524;SDS011;40431;52.198;9.902;2024-03-08T02:40:55;29.13;;;25.40;;
17524;SDS011;40431;52.198;9.902;2024-03-08T02:43:34;32.67;;;25.00;;
17524;SDS011;40431;52.198;9.902;2024-03-08T02:46:08;30.00;;;24.70;;
17524;SDS011;40431;52.198;9.902;2024-03-08T02:48:36;28.07;;;24.50;;
17524;SDS011;40431;52.198;9.902;2024-03-08T02:51:11;28.63;;;24.67;;
17524;SDS011;40431;52.198;9.902;2024-03-08T02:53:52;35.63;;;24.87;;
17524;SDS011;40431;52.198;9.902;2024-03-08T02:56:26;30.27;;;23.70;;
17524;SDS011;40431;52.198;9.902;2024-03-08T02:58:58;29.07;;;24.03;;
17524;SDS011;40431;52.198;9.902;2024-03-08T03:01:29;31.03;;;25.23;;
17524;SDS011;40431;52.198;9.902;2024-03-08T03:04:13;28.20;;;25.33;;
17524;SDS011;40431;52.198;9.902;2024-03-08T03:09:35;31.63;;;25.57;;
17524;SDS011;40431;52.198;9.902;2024-03-08T03:12:05;26.17;;;23.37;;
17524;SDS011;40431;52.198;9.902;2024-03-08T03:14:36;30.47;;;24.30;;
17524;SDS011;40431;52.198;9.902;2024-03-08T03:17:11;33.30;;;25.77;;
17524;SDS011;40431;52.198;9.902;2024-03-08T03:19:49;33.03;;;23.83;;
17524;SDS011;40431;52.198;9.902;2024-03-08T03:22:19;30.33;;;25.40;;
17524;SDS011;40431;52.198;9.902;2024-03-08T03:24:47;33.57;;;25.40;;
17524;SDS011;40431;52.198;9.902;2024-03-08T03:27:17;32.93;;;27.23;;
17524;SDS011;40431;52.198;9.902;2024-03-08T03:29:51;29.90;;;26.70;;
17524;SDS011;40431;52.198;9.902;2024-03-08T03:32:47;30.93;;;24.57;;
17524;SDS011;40431;52.198;9.902;2024-03-08T03:35:27;35.00;;;26.70;;
17524;SDS011;40431;52.198;9.902;2024-03-08T03:38:01;26.47;;;23.43;;
17524;SDS011;40431;52.198;9.902;2024-03-08T03:40:32;31.67;;;26.07;;
17524;SDS011;40431;52.198;9.902;2024-03-08T03:43:00;31.17;;;27.47;;
17524;SDS011;40431;52.198;9.902;2024-03-08T03:45:29;37.50;;;26.60;;
17524;SDS011;40431;52.198;9.902;2024-03-08T03:48:02;35.37;;;26.60;;
17524;SDS011;40431;52.198;9.902;2024-03-08T03:50:32;35.03;;;25.27;;
17524;SDS011;40431;52.198;9.902;2024-03-08T03:53:02;28.57;;;25.57;;
17524;SDS011;40431;52.198;9.902;2024-03-08T03:55:34;29.50;;;25.80;;
17524;SDS011;40431;52.198;9.902;2024-03-08T03:58:04;29.43;;;25.23;;
17524;SDS011;40431;52.198;9.902;2024-03-08T04:00:42;31.67;;;25.90;;
17524;SDS011;40431;52.198;9.902;2024-03-08T04:03:10;29.53;;;26.00;;
17524;SDS011;40431;52.198;9.902;2024-03-08T04:05:37;31.80;;;24.53;;
17524;SDS011;40431;52.198;9.902;2024-03-08T04:08:05;28.63;;;25.63;;
17524;SDS011;40431;52.198;9.902;2024-03-08T04:10:32;29.13;;;26.03;;
17524;SDS011;40431;52.198;9.902;2024-03-08T04:12:58;27.87;;;24.90;;
17524;SDS011;40431;52.198;9.902;2024-03-08T04:15:25;34.07;;;26.40;;
17524;SDS011;40431;52.198;9.902;2024-03-08T04:17:51;32.07;;;25.53;;
17524;SDS011;40431;52.198;9.902;2024-03-08T04:20:18;33.67;;;26.80;;
17524;SDS011;40431;52.198;9.902;2024-03-08T04:22:46;32.73;;;25.67;;
17524;SDS011;40431;52.198;9.902;2024-03-08T04:25:15;28.80;;;25.37;;
17524;SDS011;40431;52.198;9.902;2024-03-08T04:27:42;35.30;;;27.23;;
17524;SDS011;40431;52.198;9.902;2024-03-08T04:30:09;44.83;;;28.23;;
17524;SDS011;40431;52.198;9.902;2024-03-08T04:32:37;31.50;;;27.90;;
17524;SDS011;40431;52.198;9.902;2024-03-08T04:35:04;38.10;;;28.33;;
17524;SDS011;40431;52.198;9.902;2024-03-08T04:37:31;29.57;;;26.50;;
17524;SDS011;40431;52.198;9.902;2024-03-08T04:39:57;30.37;;;26.30;;
17524;SDS011;40431;52.198;9.902;2024-03-08T04:42:25;31.93;;;26.57;;
17524;SDS011;40431;52.198;9.902;2024-03-08T04:44:53;33.87;;;26.37;;
17524;SDS011;40431;52.198;9.902;2024-03-08T04:47:20;36.10;;;26.83;;
17524;SDS011;40431;52.198;9.902;2024-03-08T04:49:46;29.30;;;25.87;;
17524;SDS011;40431;52.198;9.902;2024-03-08T04:52:13;28.97;;;25.87;;
17524;SDS011;40431;52.198;9.902;2024-03-08T04:54:39;28.87;;;25.47;;
17524;SDS011;40431;52.198;9.902;2024-03-08T04:57:06;33.73;;;26.37;;
17524;SDS011;40431;52.198;9.902;2024-03-08T04:59:34;32.57;;;27.37;;
17524;SDS011;40431;52.198;9.902;2024-03-08T05:02:01;36.17;;;28.53;;
17524;SDS011;40431;52.198;9.902;2024-03-08T05:04:27;38.77;;;27.50;;
17524;SDS011;40431;52.198;9.902;2024-03-08T05:06:54;33.47;;;27.10;;
17524;SDS011;40431;52.198;9.902;2024-03-08T05:09:21;31.20;;;26.63;;
17524;SDS011;40431;52.198;9.902;2024-03-08T05:11:48;32.47;;;27.40;;
17524;SDS011;40431;52.198;9.902;2024-03-08T05:14:15;30.37;;;26.90;;
17524;SDS011;40431;52.198;9.902;2024-03-08T05:16:44;34.63;;;26.90;;
17524;SDS011;40431;52.198;9.902;2024-03-08T05:19:13;32.20;;;27.33;;
17524;SDS011;40431;52.198;9.902;2024-03-08T05:21:41;33.20;;;27.27;;
17524;SDS011;40431;52.198;9.902;2024-03-08T05:24:08;33.93;;;27.07;;
17524;SDS011;40431;52.198;9.902;2024-03-08T05:26:35;36.00;;;27.57;;
17524;SDS011;40431;52.198;9.902;2024-03-08T05:29:02;30.50;;;25.03;;
17524;SDS011;40431;52.198;9.902;2024-03-08T05:31:28;30.80;;;26.40;;
17524;SDS011;40431;52.198;9.902;2024-03-08T05:34:03;31.87;;;27.97;;
17524;SDS011;40431;52.198;9.902;2024-03-08T05:36:30;34.37;;;28.40;;
17524;SDS011;40431;52.198;9.902;2024-03-08T05:38:57;43.60;;;27.47;;
17524;SDS011;40431;52.198;9.902;2024-03-08T05:41:23;31.97;;;27.17;;
17524;SDS011;40431;52.198;9.902;2024-03-08T05:43:50;34.27;;;28.60;;
17524;SDS011;40431;52.198;9.902;2024-03-08T05:46:16;29.23;;;26.10;;
17524;SDS011;40431;52.198;9.902;2024-03-08T05:48:44;33.43;;;28.27;;
17524;SDS011;40431;52.198;9.902;2024-03-08T05:51:12;34.97;;;27.40;;
17524;SDS011;40431;52.198;9.902;2024-03-08T05:53:39;30.30;;;27.00;;
17524;SDS011;40431;52.198;9.902;2024-03-08T05:56:06;35.47;;;29.20;;
17524;SDS011;40431;52.198;9.902;2024-03-08T05:58:34;35.87;;;26.67;;
17524;SDS011;40431;52.198;9.902;2024-03-08T06:01:01;36.13;;;27.83;;
17524;SDS011;40431;52.198;9.902;2024-03-08T06:03:27;32.40;;;27.10;;
17524;SDS011;40431;52.198;9.902;2024-03-08T06:05:54;41.53;;;28.40;;
17524;SDS011;40431;52.198;9.902;2024-03-08T06:08:22;41.37;;;27.70;;
17524;SDS011;40431;52.198;9.902;2024-03-08T06:10:54;36.83;;;28.37;;
17524;SDS011;40431;52.198;9.902;2024-03-08T06:13:21;34.93;;;28.67;;
17524;SDS011;40431;52.198;9.902;2024-03-08T06:15:47;37.10;;;29.57;;
17524;SDS011;40431;52.198;9.902;2024-03-08T06:18:15;31.87;;;27.97;;
17524;SDS011;40431;52.198;9.902;2024-03-08T06:20:42;34.27;;;28.47;;
17524;SDS011;40431;52.198;9.902;2024-03-08T06:23:09;35.07;;;28.03;;
17524;SDS011;40431;52.198;9.902;2024-03-08T06:25:37;37.57;;;29.33;;
17524;SDS011;40431;52.198;9.902;2024-03-08T06:28:04;36.13;;;28.80;;
17524;SDS011;40431;52.198;9.902;2024-03-08T06:30:31;32.57;;;27.73;;
17524;SDS011;40431;52.198;9.902;2024-03-08T06:32:57;37.90;;;29.47;;
17524;SDS011;40431;52.198;9.902;2024-03-08T06:35:24;39.57;;;30.27;;
17524;SDS011;40431;52.198;9.902;2024-03-08T06:37:50;39.33;;;28.23;;
17524;SDS011;40431;52.198;9.902;2024-03-08T06:40:17;37.30;;;27.87;;
17524;SDS011;40431;52.198;9.902;2024-03-08T06:42:45;43.90;;;30.97;;
17524;SDS011;40431;52.198;9.902;2024-03-08T06:45:12;34.63;;;29.33;;
17524;SDS011;40431;52.198;9.902;2024-03-08T06:47:40;36.20;;;28.03;;
17524;SDS011;40431;52.198;9.902;2024-03-08T06:50:08;38.10;;;28.57;;
17524;SDS011;40431;52.198;9.902;2024-03-08T06:52:36;34.70;;;29.53;;
17524;SDS011;40431;52.198;9.902;2024-03-08T06:55:04;39.20;;;29.00;;
17524;SDS011;40431;52.198;9.902;2024-03-08T06:57:31;39.23;;;31.50;;
17524;SDS011;40431;52.198;9.902;2024-03-08T06:59:59;33.87;;;28.60;;
17524;SDS011;40431;52.198;9.902;2024-03-08T07:02:26;36.13;;;28.70;;
17524;SDS011;40431;52.198;9.902;2024-03-08T07:04:53;38.57;;;28.43;;
17524;SDS011;40431;52.198;9.902;2024-03-08T07:07:19;36.53;;;27.80;;
17524;SDS011;40431;52.198;9.902;2024-03-08T07:09:46;36.23;;;29.27;;
17524;SDS011;40431;52.198;9.902;2024-03-08T07:12:14;34.23;;;28.07;;
17524;SDS011;40431;52.198;9.902;2024-03-08T07:14:41;36.67;;;28.37;;
17524;SDS011;40431;52.198;9.902;2024-03-08T07:17:11;37.20;;;29.83;;
17524;SDS011;40431;52.198;9.902;2024-03-08T07:19:38;31.60;;;27.70;;
17524;SDS011;40431;52.198;9.902;2024-03-08T07:22:04;39.10;;;28.83;;
17524;SDS011;40431;52.198;9.902;2024-03-08T07:24:33;34.30;;;29.40;;
17524;SDS011;40431;52.198;9.902;2024-03-08T07:27:15;38.83;;;28.37;;
17524;SDS011;40431;52.198;9.902;2024-03-08T07:29:42;36.80;;;30.03;;
17524;SDS011;40431;52.198;9.902;2024-03-08T07:32:08;37.43;;;28.80;;
17524;SDS011;40431;52.198;9.902;2024-03-08T07:34:47;35.37;;;29.53;;
17524;SDS011;40431;52.198;9.902;2024-03-08T07:37:15;33.87;;;27.43;;
17524;SDS011;40431;52.198;9.902;2024-03-08T07:39:42;34.27;;;27.93;;
17524;SDS011;40431;52.198;9.902;2024-03-08T07:42:08;33.63;;;28.57;;
17524;SDS011;40431;52.198;9.902;2024-03-08T07:44:35;32.77;;;28.03;;
17524;SDS011;40431;52.198;9.902;2024-03-08T07:47:02;33.57;;;28.20;;
17524;SDS011;40431;52.198;9.902;2024-03-08T07:49:29;35.03;;;29.37;;
17524;SDS011;40431;52.198;9.902;2024-03-08T07:51:57;33.40;;;29.80;;
17524;SDS011;40431;52.198;9.902;2024-03-08T07:54:24;31.47;;;27.60;;
17524;SDS011;40431;52.198;9.902;2024-03-08T07:56:51;30.93;;;26.47;;
17524;SDS011;40431;52.198;9.902;2024-03-08T07:59:17;34.97;;;28.13;;
17524;SDS011;40431;52.198;9.902;2024-03-08T08:01:44;32.27;;;28.30;;
17524;SDS011;40431;52.198;9.902;2024-03-08T08:04:12;33.43;;;29.27;;
17524;SDS011;40431;52.198;9.902;2024-03-08T08:06:50;31.67;;;28.30;;
17524;SDS011;40431;52.198;9.902;2024-03-08T08:09:19;29.47;;;26.20;;
17524;SDS011;40431;52.198;9.902;2024-03-08T08:11:54;32.37;;;26.87;;
17524;SDS011;40431;52.198;9.902;2024-03-08T08:14:22;30.93;;;27.73;;
17524;SDS011;40431;52.198;9.902;2024-03-08T08:16:51;31.60;;;28.23;;
17524;SDS011;40431;52.198;9.902;2024-03-08T08:19:21;29.67;;;26.47;;
17524;SDS011;40431;52.198;9.902;2024-03-08T08:21:51;29.30;;;26.20;;
17524;SDS011;40431;52.198;9.902;2024-03-08T08:24:20;30.07;;;26.43;;
17524;SDS011;40431;52.198;9.902;2024-03-08T08:26:55;34.10;;;28.47;;
17524;SDS011;40431;52.198;9.902;2024-03-08T08:29:28;30.47;;;27.27;;
17524;SDS011;40431;52.198;9.902;2024-03-08T08:31:58;31.77;;;28.57;;
17524;SDS011;40431;52.198;9.902;2024-03-08T08:34:32;39.10;;;29.27;;
17524;SDS011;40431;52.198;9.902;2024-03-08T08:37:03;32.97;;;28.67;;
17524;SDS011;40431;52.198;9.902;2024-03-08T08:39:34;32.20;;;27.23;;
17524;SDS011;40431;52.198;9.902;2024-03-08T08:42:03;33.20;;;28.77;;
17524;SDS011;40431;52.198;9.902;2024-03-08T08:44:34;31.27;;;27.93;;
17524;SDS011;40431;52.198;9.902;2024-03-08T08:47:08;30.33;;;27.20;;
17524;SDS011;40431;52.198;9.902;2024-03-08T08:49:36;33.67;;;28.77;;
17524;SDS011;40431;52.198;9.902;2024-03-08T08:52:04;31.97;;;28.73;;
17524;SDS011;40431;52.198;9.902;2024-03-08T08:54:35;30.67;;;27.50;;
17524;SDS011;40431;52.198;9.902;2024-03-08T08:57:10;33.80;;;29.73;;
17524;SDS011;40431;52.198;9.902;2024-03-08T08:59:39;30.67;;;27.57;;
17524;SDS011;40431;52.198;9.902;2024-03-08T09:02:06;31.40;;;28.23;;
17524;SDS011;40431;52.198;9.902;2024-03-08T09:04:37;29.00;;;26.13;;
17524;SDS011;40431;52.198;9.902;2024-03-08T09:07:06;33.53;;;28.33;;
17524;SDS011;40431;52.198;9.902;2024-03-08T09:09:35;32.87;;;27.13;;
17524;SDS011;40431;52.198;9.902;2024-03-08T09:12:20;30.17;;;26.63;;
17524;SDS011;40431;52.198;9.902;2024-03-08T09:14:51;29.63;;;26.57;;
17524;SDS011;40431;52.198;9.902;2024-03-08T09:17:27;31.07;;;27.77;;
17524;SDS011;40431;52.198;9.902;2024-03-08T09:20:01;29.83;;;26.90;;
17524;SDS011;40431;52.198;9.902;2024-03-08T09:22:34;30.67;;;27.57;;
17524;SDS011;40431;52.198;9.902;2024-03-08T09:25:07;30.63;;;27.47;;
17524;SDS011;40431;52.198;9.902;2024-03-08T09:27:35;30.87;;;27.57;;
17524;SDS011;40431;52.198;9.902;2024-03-08T09:30:11;31.03;;;27.60;;
17524;SDS011;40431;52.198;9.902;2024-03-08T09:32:41;31.27;;;27.67;;
17524;SDS011;40431;52.198;9.902;2024-03-08T09:35:18;29.03;;;25.83;;
17524;SDS011;40431;52.198;9.902;2024-03-08T09:37:52;30.80;;;27.90;;
17524;SDS011;40431;52.198;9.902;2024-03-08T09:40:31;30.13;;;26.83;;
17524;SDS011;40431;52.198;9.902;2024-03-08T09:43:10;28.70;;;26.03;;
17524;SDS011;40431;52.198;9.902;2024-03-08T09:45:39;29.13;;;26.33;;
17524;SDS011;40431;52.198;9.902;2024-03-08T09:48:14;29.97;;;26.97;;
17524;SDS011;40431;52.198;9.902;2024-03-08T09:50:49;29.63;;;26.60;;
17524;SDS011;40431;52.198;9.902;2024-03-08T09:53:29;30.57;;;27.67;;
17524;SDS011;40431;52.198;9.902;2024-03-08T09:56:09;28.33;;;25.47;;
17524;SDS011;40431;52.198;9.902;2024-03-08T09:58:43;30.43;;;27.23;;
17524;SDS011;40431;52.198;9.902;2024-03-08T10:01:45;31.53;;;27.70;;
17524;SDS011;40431;52.198;9.902;2024-03-08T10:04:17;30.43;;;27.17;;
17524;SDS011;40431;52.198;9.902;2024-03-08T10:06:47;28.37;;;25.47;;
17524;SDS011;40431;52.198;9.902;2024-03-08T10:09:15;28.77;;;26.07;;
17524;SDS011;40431;52.198;9.902;2024-03-08T10:11:45;29.93;;;26.93;;
17524;SDS011;40431;52.198;9.902;2024-03-08T10:14:16;30.93;;;27.67;;
17524;SDS011;40431;52.198;9.902;2024-03-08T10:16:44;29.43;;;26.40;;
17524;SDS011;40431;52.198;9.902;2024-03-08T10:19:13;30.30;;;27.30;;
17524;SDS011;40431;52.198;9.902;2024-03-08T10:21:47;29.23;;;26.40;;
17524;SDS011;40431;52.198;9.902;2024-03-08T10:24:19;29.00;;;25.70;;
17524;SDS011;40431;52.198;9.902;2024-03-08T10:26:55;30.60;;;27.57;;
17524;SDS011;40431;52.198;9.902;2024-03-08T10:29:32;30.20;;;27.10;;
17524;SDS011;40431;52.198;9.902;2024-03-08T10:32:00;27.83;;;25.50;;
17524;SDS011;40431;52.198;9.902;2024-03-08T10:34:31;28.60;;;25.83;;
17524;SDS011;40431;52.198;9.902;2024-03-08T10:37:03;27.53;;;25.03;;
17524;SDS011;40431;52.198;9.902;2024-03-08T10:39:33;30.43;;;27.27;;
17524;SDS011;40431;52.198;9.902;2024-03-08T10:42:07;32.00;;;28.03;;
17524;SDS011;40431;52.198;9.902;2024-03-08T10:44:49;33.10;;;29.50;;
17524;SDS011;40431;52.198;9.902;2024-03-08T10:47:33;30.73;;;27.67;;
17524;SDS011;40431;52.198;9.902;2024-03-08T10:50:18;32.07;;;28.60;;
17524;SDS011;40431;52.198;9.902;2024-03-08T10:52:51;27.73;;;24.87;;
17524;SDS011;40431;52.198;9.902;2024-03-08T10:55:22;36.10;;;28.00;;
17524;SDS011;40431;52.198;9.902;2024-03-08T10:57:57;32.53;;;27.37;;
17524;SDS011;40431;52.198;9.902;2024-03-08T11:00:25;29.67;;;26.60;;
17524;SDS011;40431;52.198;9.902;2024-03-08T11:02:57;32.27;;;27.27;;
17524;SDS011;40431;52.198;9.902;2024-03-08T11:05:32;29.90;;;26.93;;
17524;SDS011;40431;52.198;9.902;2024-03-08T11:08:15;28.47;;;25.73;;
17524;SDS011;40431;52.198;9.902;2024-03-08T11:10:48;26.37;;;24.03;;
17524;SDS011;40431;52.198;9.902;2024-03-08T11:16:09;29.67;;;26.33;;
17524;SDS011;40431;52.198;9.902;2024-03-08T11:18:38;27.80;;;25.37;;
17524;SDS011;40431;52.198;9.902;2024-03-08T11:21:09;30.23;;;27.10;;
17524;SDS011;40431;52.198;9.902;2024-03-08T11:23:48;31.30;;;26.93;;
17524;SDS011;40431;52.198;9.902;2024-03-08T11:26:27;28.17;;;25.50;;
17524;SDS011;40431;52.198;9.902;2024-03-08T11:42:20;27.87;;;25.07;;
17524;SDS011;40431;52.198;9.902;2024-03-08T11:44:50;28.13;;;25.13;;
17524;SDS011;40431;52.198;9.902;2024-03-08T11:47:29;26.50;;;23.90;;
17524;SDS011;40431;52.198;9.902;2024-03-08T11:50:11;27.97;;;25.23;;
17524;SDS011;40431;52.198;9.902;2024-03-08T11:52:40;29.63;;;26.63;;
17524;SDS011;40431;52.198;9.902;2024-03-08T11:55:20;27.83;;;24.83;;
17524;SDS011;40431;52.198;9.902;2024-03-08T11:58:06;26.27;;;23.30;;
17524;SDS011;40431;52.198;9.902;2024-03-08T12:00:36;28.33;;;25.83;;
17524;SDS011;40431;52.198;9.902;2024-03-08T12:03:07;28.50;;;25.30;;
17524;SDS011;40431;52.198;9.902;2024-03-08T12:05:45;28.43;;;25.53;;
17524;SDS011;40431;52.198;9.902;2024-03-08T12:08:18;27.10;;;24.03;;
17524;SDS011;40431;52.198;9.902;2024-03-08T12:10:48;28.00;;;25.30;;
17524;SDS011;40431;52.198;9.902;2024-03-08T12:13:20;27.17;;;24.63;;
17524;SDS011;40431;52.198;9.902;2024-03-08T12:15:48;26.90;;;24.27;;
17524;SDS011;40431;52.198;9.902;2024-03-08T12:18:26;27.40;;;24.73;;
17524;SDS011;40431;52.198;9.902;2024-03-08T12:21:07;29.37;;;26.60;;
17524;SDS011;40431;52.198;9.902;2024-03-08T12:23:43;29.13;;;26.43;;
17524;SDS011;40431;52.198;9.902;2024-03-08T12:26:16;27.30;;;24.53;;
17524;SDS011;40431;52.198;9.902;2024-03-08T12:28:51;28.50;;;25.87;;
17524;SDS011;40431;52.198;9.902;2024-03-08T12:31:31;28.13;;;25.47;;
17524;SDS011;40431;52.198;9.902;2024-03-08T12:34:12;27.67;;;25.00;;
17524;SDS011;40431;52.198;9.902;2024-03-08T12:36:44;28.30;;;25.53;;
17524;SDS011;40431;52.198;9.902;2024-03-08T12:39:17;29.43;;;26.63;;
17524;SDS011;40431;52.198;9.902;2024-03-08T12:42:00;28.10;;;25.67;;
17524;SDS011;40431;52.198;9.902;2024-03-08T12:45:00;30.10;;;26.83;;
17524;SDS011;40431;52.198;9.902;2024-03-08T12:47:35;27.53;;;25.03;;
17524;SDS011;40431;52.198;9.902;2024-03-08T12:50:13;26.43;;;24.17;;
17524;SDS011;40431;52.198;9.902;2024-03-08T12:53:16;27.63;;;25.23;;
17524;SDS011;40431;52.198;9.902;2024-03-08T12:55:48;28.63;;;25.90;;
17524;SDS011;40431;52.198;9.902;2024-03-08T12:58:17;28.73;;;25.87;;
17524;SDS011;40431;52.198;9.902;2024-03-08T13:00:47;28.10;;;25.17;;
17524;SDS011;40431;52.198;9.902;2024-03-08T13:03:21;28.07;;;25.57;;
17524;SDS011;40431;52.198;9.902;2024-03-08T13:05:57;31.73;;;25.67;;
17524;SDS011;40431;52.198;9.902;2024-03-08T13:08:43;27.90;;;25.40;;
17524;SDS011;40431;52.198;9.902;2024-03-08T13:11:14;26.67;;;24.13;;
17524;SDS011;40431;52.198;9.902;2024-03-08T13:13:46;27.20;;;24.80;;
17524;SDS011;40431;52.198;9.902;2024-03-08T13:19:39;28.83;;;26.17;;
17524;SDS011;40431;52.198;9.902;2024-03-08T13:22:40;26.60;;;24.10;;
17524;SDS011;40431;52.198;9.902;2024-03-08T13:25:18;28.97;;;26.17;;
17524;SDS011;40431;52.198;9.902;2024-03-08T13:27:57;29.63;;;26.13;;
17524;SDS011;40431;52.198;9.902;2024-03-08T13:30:47;26.73;;;24.23;;
17524;SDS011;40431;52.198;9.902;2024-03-08T13:33:20;25.37;;;23.03;;
17524;SDS011;40431;52.198;9.902;2024-03-08T13:35:55;25.43;;;23.13;;
17524;SDS011;40431;52.198;9.902;2024-03-08T13:38:32;26.60;;;24.43;;
17524;SDS011;40431;52.198;9.902;2024-03-08T13:41:17;27.60;;;25.00;;
17524;SDS011;40431;52.198;9.902;2024-03-08T13:43:50;27.67;;;25.10;;
17524;SDS011;40431;52.198;9.902;2024-03-08T13:46:26;25.80;;;23.37;;
17524;SDS011;40431;52.198;9.902;2024-03-08T13:48:58;25.70;;;23.40;;
17524;SDS011;40431;52.198;9.902;2024-03-08T13:51:51;27.80;;;25.10;;
17524;SDS011;40431;52.198;9.902;2024-03-08T13:54:28;26.23;;;24.03;;
17524;SDS011;40431;52.198;9.902;2024-03-08T13:57:08;27.00;;;24.53;;
17524;SDS011;40431;52.198;9.902;2024-03-08T13:59:42;27.30;;;24.73;;
17524;SDS011;40431;52.198;9.902;2024-03-08T14:02:23;28.40;;;25.70;;
17524;SDS011;40431;52.198;9.902;2024-03-08T14:04:58;26.30;;;23.90;;
17524;SDS011;40431;52.198;9.902;2024-03-08T14:07:34;28.00;;;25.23;;
17524;SDS011;40431;52.198;9.902;2024-03-08T14:10:13;26.97;;;24.37;;
17524;SDS011;40431;52.198;9.902;2024-03-08T14:12:56;27.27;;;24.57;;
17524;SDS011;40431;52.198;9.902;2024-03-08T14:15:40;27.43;;;24.90;;
17524;SDS011;40431;52.198;9.902;2024-03-08T14:18:19;26.57;;;24.27;;
17524;SDS011;40431;52.198;9.902;2024-03-08T14:20:59;28.00;;;25.50;;
17524;SDS011;40431;52.198;9.902;2024-03-08T14:23:37;26.50;;;24.07;;
17524;SDS011;40431;52.198;9.902;2024-03-08T14:26:05;26.50;;;23.93;;
17524;SDS011;40431;52.198;9.902;2024-03-08T14:28:46;29.27;;;25.13;;
17524;SDS011;40431;52.198;9.902;2024-03-08T14:31:17;26.67;;;24.07;;
17524;SDS011;40431;52.198;9.902;2024-03-08T14:33:49;28.00;;;25.40;;
17524;SDS011;40431;52.198;9.902;2024-03-08T14:36:30;28.10;;;25.43;;
17524;SDS011;40431;52.198;9.902;2024-03-08T14:39:10;27.27;;;24.63;;
17524;SDS011;40431;52.198;9.902;2024-03-08T14:41:52;28.40;;;25.83;;
17524;SDS011;40431;52.198;9.902;2024-03-08T14:44:24;29.33;;;26.43;;
17524;SDS011;40431;52.198;9.902;2024-03-08T14:46:52;27.43;;;24.60;;
17524;SDS011;40431;52.198;9.902;2024-03-08T14:49:36;27.13;;;24.63;;
17524;SDS011;40431;52.198;9.902;2024-03-08T14:52:18;28.53;;;25.50;;
17524;SDS011;40431;52.198;9.902;2024-03-08T14:55:26;27.20;;;24.33;;
17524;SDS011;40431;52.198;9.902;2024-03-08T14:58:02;30.20;;;27.30;;
17524;SDS011;40431;52.198;9.902;2024-03-08T15:00:34;28.23;;;25.50;;
17524;SDS011;40431;52.198;9.902;2024-03-08T15:03:05;28.57;;;25.83;;
17524;SDS011;40431;52.198;9.902;2024-03-08T15:05:38;26.27;;;23.97;;
17524;SDS011;40431;52.198;9.902;2024-03-08T15:08:14;27.87;;;25.20;;
17524;SDS011;40431;52.198;9.902;2024-03-08T15:10:50;27.63;;;25.13;;
17524;SDS011;40431;52.198;9.902;2024-03-08T15:13:22;26.27;;;23.83;;